Catalina, Canada
Current Conditions -  °F | °C
As of 12:00 AM on Tuesday 27 Jan 2015 (Local Time) from CYYT Reporting Station
Broken Clouds Broken Clouds  
Wind Chill:   Ceiling: 2700
Heat Index: 19°   Visibility: 15mi
Dew Point: 14°   Wind: 10mph
Humidity: 80%   Direction: 310°NW
Pressure: 30.29"   Gusts: NA
Location:  48.52°N, 53.08°W
Report Text: CYYT 270300Z 31009KT 15SM BKN027 M07/M10 A3029 RMK SC7 PRESRR SLP266
Loading
Personal Weather Stations






























Interactive Weather Map New forecast layout! Learn more

10-Day Weather Forecast

Advertisements
Track Severe Weather on mobile